createdAt,value
2022-09-05T00:01:28.339Z,101988.75
2022-09-05T00:04:24.034Z,101984.31
2022-09-05T00:07:05.098Z,101982.53
2022-09-05T00:10:00.792Z,101983.41
2022-09-05T00:12:32.051Z,101976.31
2022-09-05T00:15:25.042Z,101981.53
2022-09-05T00:24:22.749Z,101981.53
2022-09-05T00:24:35.068Z,101979.75
2022-09-05T00:25:00.971Z,101977.88
2022-09-05T00:27:43.667Z,101979.63
2022-09-05T00:31:08.659Z,101982.28
2022-09-05T00:33:28.366Z,101994.56
2022-09-05T00:36:09.096Z,101989.28
2022-09-05T00:38:42.604Z,101986.53
2022-09-05T00:41:14.616Z,101984.78
2022-09-05T00:43:46.232Z,101996.16
2022-09-05T00:46:17.978Z,101997.00
2022-09-05T00:48:52.425Z,101999.56
2022-09-05T00:51:34.962Z,101991.63
2022-09-05T00:54:40.887Z,101992.47
2022-09-05T00:57:33.272Z,101995.00
2022-09-05T01:00:17.037Z,102001.06
2022-09-05T01:03:02.881Z,102002.78
2022-09-05T01:05:43.318Z,101993.91
2022-09-05T01:08:28.983Z,102004.38
2022-09-05T01:11:07.623Z,102001.72
2022-09-05T01:13:45.491Z,102001.63
2022-09-05T01:16:23.307Z,101995.44
2022-09-05T01:19:06.772Z,102009.38
2022-09-05T01:22:09.758Z,102001.44
2022-09-05T01:24:54.203Z,102004.91
2022-09-05T01:28:41.266Z,102004.88
2022-09-05T01:30:44.345Z,102007.38
2022-09-05T01:33:24.137Z,102011.69
2022-09-05T01:36:08.970Z,102011.63
2022-09-05T01:38:55.311Z,102006.28
2022-09-05T01:41:43.460Z,102001.84
2022-09-05T01:44:29.047Z,101998.31
2022-09-05T01:47:09.648Z,102011.38
2022-09-05T01:49:52.620Z,102011.28
2022-09-05T01:52:51.632Z,102013.00
2022-09-05T01:56:06.434Z,102015.59
2022-09-05T01:58:51.012Z,102021.66
2022-09-05T02:01:32.554Z,102018.00
2022-09-05T02:04:29.303Z,102018.75
2022-09-05T02:07:19.345Z,102015.19
2022-09-05T02:10:38.416Z,102021.25
2022-09-05T02:13:19.567Z,102018.53
2022-09-05T02:15:59.269Z,102029.94
2022-09-05T02:18:46.996Z,102024.63
2022-09-05T02:21:25.243Z,102019.31
2022-09-05T02:24:07.027Z,102021.94
2022-09-05T02:26:41.015Z,102024.50
2022-09-05T02:29:29.085Z,102022.72
2022-09-05T02:32:04.190Z,102026.19
2022-09-05T02:34:39.260Z,102024.41
2022-09-05T02:37:13.183Z,102022.56
2022-09-05T02:45:01.243Z,102025.97
2022-09-05T02:45:09.925Z,102027.66
2022-09-05T02:45:42.387Z,102024.13
2022-09-05T02:48:23.196Z,102030.97
2022-09-05T02:54:27.801Z,102027.59
2022-09-05T02:57:36.182Z,102034.53
2022-09-05T02:58:08.076Z,102020.38
2022-09-05T03:00:21.460Z,102026.50
2022-09-05T03:03:09.443Z,102038.75
2022-09-05T03:05:47.410Z,102030.81
2022-09-05T03:08:27.886Z,102037.78
2022-09-05T03:11:37.742Z,102031.69
2022-09-05T03:14:59.596Z,102025.44
2022-09-05T03:18:20.816Z,102021.09
2022-09-05T03:21:26.757Z,102019.31
2022-09-05T03:24:31.615Z,102026.25
2022-09-05T03:27:30.230Z,102020.09
2022-09-05T03:30:13.094Z,102020.91
2022-09-05T03:33:22.848Z,102028.72
2022-09-05T03:36:26.149Z,102025.09
2022-09-05T03:39:36.043Z,102028.50
2022-09-05T03:42:30.935Z,102022.19
2022-09-05T03:45:34.961Z,102023.91
2022-09-05T03:48:43.526Z,102026.53
2022-09-05T03:57:06.056Z,102023.00
2022-09-05T03:57:14.634Z,102021.22
2022-09-05T03:58:18.313Z,102017.66
2022-09-05T04:01:35.825Z,102024.50
2022-09-05T04:08:07.949Z,102029.69
2022-09-05T04:08:31.417Z,102019.09
2022-09-05T04:09:52.282Z,102030.41
2022-09-05T04:12:27.072Z,102025.09
2022-09-05T04:14:59.713Z,102026.81
2022-09-05T04:17:36.653Z,102030.13
2022-09-05T04:20:12.180Z,102027.50
2022-09-05T04:23:05.508Z,102028.31
2022-09-05T04:25:50.221Z,102026.59
2022-09-05T04:28:49.993Z,102028.25
2022-09-05T04:31:32.959Z,102033.44
2022-09-05T04:34:11.007Z,102032.53
2022-09-05T04:36:41.267Z,102042.91
2022-09-05T04:39:26.357Z,102045.47
2022-09-05T04:42:03.691Z,102039.31
2022-09-05T04:44:35.901Z,102036.66
2022-09-05T04:47:10.411Z,102047.97
2022-09-05T04:49:45.500Z,102057.56
2022-09-05T04:52:50.793Z,102045.19
2022-09-05T04:55:23.510Z,102050.41
2022-09-05T04:57:59.064Z,102042.56
2022-09-05T05:05:59.772Z,102044.34
2022-09-05T05:06:17.343Z,102042.56
2022-09-05T05:06:44.123Z,102047.81
2022-09-05T05:09:21.804Z,102048.63
2022-09-05T05:17:59.476Z,102046.91
2022-09-05T05:18:12.356Z,102053.13
2022-09-05T05:18:14.997Z,102054.81
2022-09-05T05:20:41.978Z,102061.06
2022-09-05T05:23:15.417Z,102061.03
2022-09-05T05:25:49.505Z,102066.31
2022-09-05T05:28:27.170Z,102070.66
2022-09-05T05:31:08.840Z,102062.00
2022-09-05T05:33:40.463Z,102068.19
2022-09-05T05:36:17.607Z,102065.59
2022-09-05T05:38:53.599Z,102068.34
2022-09-05T05:41:29.112Z,102074.47
2022-09-05T05:43:59.159Z,102069.31
2022-09-05T05:46:37.644Z,102073.72
2022-09-05T05:49:28.307Z,102079.00
2022-09-05T05:52:14.014Z,102077.22
2022-09-05T05:54:51.232Z,102065.84
2022-09-05T05:57:58.477Z,102072.06
2022-09-05T06:00:52.006Z,102068.63
2022-09-05T06:03:55.809Z,102074.72
2022-09-05T06:06:38.765Z,102069.59
2022-09-05T06:14:49.338Z,102079.28
2022-09-05T06:15:01.181Z,102072.38
2022-09-05T06:16:32.155Z,102081.22
2022-09-05T06:19:54.545Z,102083.00
2022-09-05T06:23:00.654Z,102084.81
2022-09-05T06:25:59.242Z,102076.19
2022-09-05T06:28:44.491Z,102082.41
2022-09-05T06:31:31.412Z,102084.38
2022-09-05T06:34:35.645Z,102087.97
2022-09-05T06:37:17.530Z,102086.34
2022-09-05T06:40:02.072Z,102086.50
2022-09-05T06:42:43.504Z,102084.91
2022-09-05T06:45:40.128Z,102085.06
2022-09-05T06:48:23.900Z,102083.44
2022-09-05T06:51:37.849Z,102088.84
2022-09-05T06:54:47.146Z,102094.25
2022-09-05T06:57:56.854Z,102099.66
2022-09-05T07:00:29.533Z,102101.56
2022-09-05T07:03:26.005Z,102103.44
2022-09-05T07:05:59.950Z,102108.88
2022-09-05T07:08:37.662Z,102108.13
2022-09-05T07:11:16.690Z,102116.22
2022-09-05T07:13:57.826Z,102109.44
2022-09-05T07:16:39.501Z,102113.97
2022-09-05T07:19:26.949Z,102115.03
2022-09-05T07:22:47.778Z,102114.31
2022-09-05T07:25:18.034Z,102113.56
2022-09-05T07:28:28.209Z,102113.75
2022-09-05T07:30:49.042Z,102108.63
2022-09-05T07:33:21.623Z,102117.59
2022-09-05T07:35:52.648Z,102112.47
2022-09-05T07:38:35.301Z,102110.91
2022-09-05T07:41:24.060Z,102112.81
2022-09-05T07:43:59.163Z,102114.69
2022-09-05T07:46:31.799Z,102111.28
2022-09-05T07:49:04.315Z,102112.25
2022-09-05T07:57:07.804Z,102119.47
2022-09-05T07:57:10.642Z,102115.84
2022-09-05T07:57:30.005Z,102116.97
2022-09-05T08:00:07.826Z,102122.34
2022-09-05T08:02:55.589Z,102114.53
2022-09-05T08:05:34.582Z,102111.97
2022-09-05T08:08:10.975Z,102114.75
2022-09-05T08:11:23.362Z,102118.38
2022-09-05T08:14:03.695Z,102119.44
2022-09-05T08:16:45.086Z,102121.31
2022-09-05T08:19:43.390Z,102115.28
2022-09-05T08:22:21.983Z,102112.72
2022-09-05T08:25:01.016Z,102118.03
2022-09-05T08:27:37.421Z,102112.84
2022-09-05T08:30:26.240Z,102109.41
2022-09-05T08:33:11.378Z,102109.50
2022-09-05T08:35:45.259Z,102099.06
2022-09-05T08:38:15.613Z,102102.69
2022-09-05T08:40:53.235Z,102094.00
2022-09-05T08:46:42.438Z,102095.03
2022-09-05T08:46:44.587Z,102093.44
2022-09-05T08:49:50.457Z,102090.97
2022-09-05T08:52:31.516Z,102087.59
2022-09-05T08:55:17.316Z,102073.63
2022-09-05T08:58:07.199Z,102075.47
2022-09-05T09:00:45.085Z,102077.34
2022-09-05T09:03:30.611Z,102074.75
2022-09-05T09:06:17.372Z,102078.34
2022-09-05T09:09:05.966Z,102078.41
2022-09-05T09:11:38.973Z,102068.81
2022-09-05T09:14:36.563Z,102070.66
2022-09-05T09:17:20.178Z,102064.59
2022-09-05T09:19:52.643Z,102065.56
2022-09-05T09:22:38.560Z,102073.56
2022-09-05T09:25:15.368Z,102065.75
2022-09-05T09:28:46.735Z,102071.13
2022-09-05T09:31:15.870Z,102065.06
2022-09-05T09:33:49.900Z,102069.56
2022-09-05T09:36:51.671Z,102066.06
2022-09-05T09:39:38.521Z,102073.19
2022-09-05T09:42:32.775Z,102071.50
2022-09-05T09:45:29.215Z,102062.75
2022-09-05T09:48:21.079Z,102066.34
2022-09-05T09:51:22.897Z,102058.47
2022-09-05T09:54:09.906Z,102066.50
2022-09-05T09:57:15.757Z,102061.25
2022-09-05T10:00:09.744Z,102060.47
2022-09-05T10:08:09.115Z,102053.44
2022-09-05T10:10:54.671Z,102050.00
2022-09-05T10:10:59.080Z,102048.22
2022-09-05T10:12:48.948Z,102043.88
2022-09-05T10:15:31.467Z,102043.94
2022-09-05T10:18:42.741Z,102040.44
2022-09-05T10:21:42.552Z,102039.59
2022-09-05T10:24:58.039Z,102033.41
2022-09-05T10:28:06.088Z,102026.34
2022-09-05T10:31:39.883Z,102025.47
2022-09-05T10:35:15.397Z,102022.66
2022-09-05T10:36:33.538Z,102022.44
2022-09-05T10:39:17.872Z,102018.50
2022-09-05T10:41:49.384Z,102013.50
2022-09-05T10:44:28.282Z,102014.56
2022-09-05T10:47:07.943Z,102000.44
2022-09-05T10:49:41.727Z,102000.53
2022-09-05T10:52:18.413Z,102005.44
2022-09-05T10:55:16.190Z,101993.63
2022-09-05T10:57:59.838Z,101991.38
2022-09-05T11:02:21.799Z,101987.66
2022-09-05T11:03:54.768Z,101997.88
2022-09-05T11:06:50.912Z,101980.34
2022-09-05T11:09:42.651Z,101988.13
2022-09-05T11:12:26.595Z,101988.97
2022-09-05T11:14:56.475Z,101977.94
2022-09-05T11:17:33.269Z,101978.47
2022-09-05T11:20:22.481Z,101973.28
2022-09-05T11:23:10.348Z,101973.31
2022-09-05T11:25:41.343Z,101981.47
2022-09-05T11:28:16.264Z,101973.09
2022-09-05T11:30:52.250Z,101973.44
2022-09-05T11:39:48.384Z,101972.72
2022-09-05T11:39:59.339Z,101967.75
2022-09-05T11:40:30.029Z,101972.44
2022-09-05T11:43:23.644Z,101975.44
2022-09-05T11:46:30.037Z,101964.06
2022-09-05T11:49:33.084Z,101972.94
2022-09-05T11:52:42.280Z,101961.91
2022-09-05T11:55:25.818Z,101959.91
2022-09-05T11:58:53.717Z,101970.44
2022-09-05T12:01:41.517Z,101963.31
2022-09-05T12:04:40.813Z,101956.69
2022-09-05T12:07:30.371Z,101961.25
2022-09-05T12:10:46.360Z,101960.16
2022-09-05T12:13:21.907Z,101957.84
2022-09-05T12:16:07.660Z,101948.88
2022-09-05T12:18:45.775Z,101947.56
2022-09-05T12:21:31.874Z,101949.13
2022-09-05T12:25:24.414Z,101944.91
2022-09-05T12:27:43.670Z,101944.00
2022-09-05T12:30:00.769Z,101936.44
2022-09-05T12:35:17.256Z,101933.59
2022-09-05T12:36:06.285Z,101933.31
2022-09-05T12:41:38.191Z,101933.09
2022-09-05T12:42:08.587Z,101937.09
2022-09-05T12:44:41.655Z,101932.69
2022-09-05T12:47:18.810Z,101926.91
2022-09-05T12:50:02.603Z,101922.50
2022-09-05T12:52:43.306Z,101924.41
2022-09-05T12:55:26.256Z,101924.44
2022-09-05T13:03:01.613Z,101922.31
2022-09-05T13:03:04.086Z,101926.69
2022-09-05T13:04:15.682Z,101925.16
2022-09-05T13:06:43.755Z,101909.84
2022-09-05T13:09:30.840Z,101921.44
2022-09-05T13:14:56.580Z,101923.66
2022-09-05T13:15:22.895Z,101924.28
2022-09-05T13:18:00.521Z,101917.81
2022-09-05T13:20:34.952Z,101901.56
2022-09-05T13:23:13.991Z,101905.31
2022-09-05T13:25:45.183Z,101904.41
2022-09-05T13:28:16.671Z,101905.56
2022-09-05T13:37:58.099Z,101900.75
2022-09-05T13:38:01.200Z,101910.69
2022-09-05T13:38:08.167Z,101907.69
2022-09-05T13:39:49.295Z,101902.66
2022-09-05T13:42:21.739Z,101898.50
2022-09-05T13:44:58.243Z,101900.97
2022-09-05T13:48:06.462Z,101900.78
2022-09-05T13:50:48.974Z,101892.09
2022-09-05T13:53:46.058Z,101895.59
2022-09-05T13:59:24.668Z,101889.78
2022-09-05T14:02:25.906Z,101883.69
2022-09-05T14:05:19.489Z,101881.50
2022-09-05T14:08:21.251Z,101889.41
2022-09-05T14:11:05.067Z,101898.34
2022-09-05T14:13:48.120Z,101883.44
2022-09-05T14:16:25.429Z,101892.31
2022-09-05T14:19:14.471Z,101877.34
2022-09-05T14:21:46.134Z,101884.97
2022-09-05T14:24:27.362Z,101877.09
2022-09-05T14:27:13.809Z,101880.13
2022-09-05T14:29:49.701Z,101872.44
2022-09-05T14:37:35.955Z,101877.13
2022-09-05T14:37:45.376Z,101880.09
2022-09-05T14:39:02.975Z,101881.50
2022-09-05T14:42:09.466Z,101868.81
2022-09-05T14:45:20.479Z,101871.47
2022-09-05T14:48:25.505Z,101867.00
2022-09-05T14:51:25.262Z,101859.50
2022-09-05T14:54:06.044Z,101853.56
2022-09-05T15:01:25.007Z,101858.22
2022-09-05T15:02:45.421Z,101856.91
2022-09-05T15:02:57.409Z,101862.50
2022-09-05T15:05:40.180Z,101847.94
2022-09-05T15:08:20.305Z,101855.09
2022-09-05T15:12:22.073Z,101850.31
2022-09-05T15:14:04.439Z,101847.72
2022-09-05T15:16:38.929Z,101841.69
2022-09-05T15:19:10.717Z,101841.75
2022-09-05T15:21:41.665Z,101838.22
2022-09-05T15:24:23.153Z,101841.84
2022-09-05T15:26:56.615Z,101849.22
2022-09-05T15:29:27.563Z,101839.59
2022-09-05T15:32:14.188Z,101836.97
2022-09-05T15:34:43.368Z,101831.75
2022-09-05T15:37:33.493Z,101835.38
2022-09-05T15:40:22.958Z,101834.56
2022-09-05T15:42:56.136Z,101832.00
2022-09-05T15:45:28.698Z,101830.28
2022-09-05T15:48:12.740Z,101826.78
2022-09-05T15:50:46.506Z,101828.78
2022-09-05T15:53:24.823Z,101829.81
2022-09-05T15:56:00.910Z,101831.72
2022-09-05T15:58:52.502Z,101830.06
2022-09-05T16:01:48.581Z,101834.47
2022-09-05T16:10:28.777Z,101837.13
2022-09-05T16:10:39.982Z,101826.41
2022-09-05T16:10:40.811Z,101822.00
2022-09-05T16:13:14.334Z,101814.88
2022-09-05T16:19:27.000Z,101816.69
2022-09-05T16:23:17.634Z,101818.44
2022-09-05T16:23:32.904Z,101826.41
2022-09-05T16:24:59.721Z,101820.28
2022-09-05T16:27:43.498Z,101832.72
2022-09-05T16:30:22.461Z,101832.75
2022-09-05T16:32:55.035Z,101831.00
2022-09-05T16:35:26.755Z,101834.59
2022-09-05T16:38:04.131Z,101824.03
2022-09-05T16:40:36.281Z,101832.09
2022-09-05T16:43:08.210Z,101827.75
2022-09-05T16:45:47.896Z,101823.41
2022-09-05T16:48:35.918Z,101820.81
2022-09-05T16:51:17.642Z,101820.84
2022-09-05T16:54:13.628Z,101831.50
2022-09-05T16:56:44.704Z,101820.06
2022-09-05T16:59:18.023Z,101822.75
2022-09-05T17:02:05.574Z,101821.00
2022-09-05T17:05:04.353Z,101829.88
2022-09-05T17:07:54.790Z,101828.09
2022-09-05T17:10:27.392Z,101825.50
2022-09-05T17:12:57.283Z,101821.97
2022-09-05T17:15:30.506Z,101822.00
2022-09-05T17:18:19.667Z,101817.63
2022-09-05T17:20:57.228Z,101819.44
2022-09-05T17:29:01.257Z,101823.03
2022-09-05T17:29:41.402Z,101817.75
2022-09-05T17:32:40.669Z,101814.31
2022-09-05T17:35:18.569Z,101819.66
2022-09-05T17:38:22.060Z,101820.56
2022-09-05T17:41:43.334Z,101825.00
2022-09-05T17:44:20.274Z,101817.06
2022-09-05T17:47:02.001Z,101831.22
2022-09-05T17:49:40.652Z,101831.25
2022-09-05T17:52:31.765Z,101825.06
2022-09-05T17:55:01.112Z,101835.66
2022-09-05T17:57:50.799Z,101841.00
2022-09-05T18:01:05.585Z,101846.28
2022-09-05T18:04:18.109Z,101848.06
2022-09-05T18:07:00.260Z,101856.91
2022-09-05T18:10:00.047Z,101859.56
2022-09-05T18:13:13.549Z,101855.16
2022-09-05T18:16:11.830Z,101853.41
2022-09-05T18:19:28.843Z,101858.69
2022-09-05T18:21:51.760Z,101855.19
2022-09-05T18:24:33.471Z,101856.09
2022-09-05T18:28:03.236Z,101853.44
2022-09-05T18:30:10.394Z,101848.13
2022-09-05T18:32:42.066Z,101857.84
2022-09-05T18:35:26.469Z,101853.44
2022-09-05T18:38:34.487Z,101854.28
2022-09-05T18:41:21.721Z,101865.75
2022-09-05T18:44:13.485Z,101861.31
2022-09-05T18:46:51.309Z,101861.34
2022-09-05T18:50:24.078Z,101859.56
2022-09-05T18:52:23.486Z,101859.56
2022-09-05T18:55:59.185Z,101863.09
2022-09-05T18:57:52.107Z,101866.63
2022-09-05T19:00:44.807Z,101858.66
2022-09-05T19:03:20.164Z,101861.31
2022-09-05T19:06:34.582Z,101861.31
2022-09-05T19:08:56.117Z,101859.53
2022-09-05T19:11:30.660Z,101861.28
2022-09-05T19:14:25.447Z,101856.88
2022-09-05T19:17:04.107Z,101855.09
2022-09-05T19:20:30.764Z,101859.50
2022-09-05T19:23:10.120Z,101864.78
2022-09-05T19:25:43.830Z,101860.38
2022-09-05T19:35:25.809Z,101863.00
2022-09-05T19:36:53.007Z,101852.38
2022-09-05T19:37:09.604Z,101857.69
2022-09-05T19:45:54.291Z,101842.66
2022-09-05T19:47:43.623Z,101856.72
2022-09-05T19:47:50.724Z,101853.19
2022-09-05T19:51:17.057Z,101861.06
2022-09-05T19:53:48.906Z,101858.41
2022-09-05T19:56:34.790Z,101850.47
2022-09-05T19:59:03.878Z,101861.03
2022-09-05T20:01:33.395Z,101854.81
2022-09-05T20:04:02.359Z,101853.06
2022-09-05T20:06:32.789Z,101852.19
2022-09-05T20:09:15.956Z,101851.28
2022-09-05T20:11:49.818Z,101850.38
2022-09-05T20:14:24.484Z,101856.53
2022-09-05T20:16:57.141Z,101854.75
2022-09-05T20:19:32.543Z,101849.44
2022-09-05T20:22:12.800Z,101850.28
2022-09-05T20:24:57.231Z,101851.16
2022-09-05T20:27:28.580Z,101842.38
2022-09-05T20:30:00.164Z,101858.16
2022-09-05T20:32:39.597Z,101855.50
2022-09-05T20:38:16.436Z,101854.59
2022-09-05T20:43:26.564Z,101847.53
2022-09-05T20:43:27.432Z,101855.41
2022-09-05T20:43:59.008Z,101858.91
2022-09-05T20:49:57.586Z,101854.41
2022-09-05T20:54:15.601Z,101864.09
2022-09-05T20:54:21.348Z,101857.91
2022-09-05T20:55:38.341Z,101848.19
2022-09-05T20:58:10.658Z,101856.13
2022-09-05T21:01:17.448Z,101852.56
2022-09-05T21:03:38.141Z,101854.28
2022-09-05T21:06:12.927Z,101849.00
2022-09-05T21:08:42.998Z,101850.69
2022-09-05T21:11:14.874Z,101850.66
2022-09-05T21:13:55.700Z,101846.22
2022-09-05T21:16:31.543Z,101848.84
2022-09-05T21:19:00.696Z,101850.53
2022-09-05T21:21:31.151Z,101850.50
2022-09-05T21:24:16.570Z,101841.69
2022-09-05T21:26:50.459Z,101835.47
2022-09-05T21:29:32.938Z,101845.19
2022-09-05T21:32:10.756Z,101843.41
2022-09-05T21:34:46.384Z,101846.88
2022-09-05T21:37:16.515Z,101834.56
2022-09-05T21:39:54.019Z,101837.19
2022-09-05T21:42:49.735Z,101839.78
2022-09-05T21:47:43.442Z,101844.16
2022-09-05T21:48:15.132Z,101838.84
2022-09-05T21:50:49.035Z,101834.41
2022-09-05T21:59:13.262Z,101830.84
2022-09-05T21:59:28.595Z,101832.53
2022-09-05T21:59:30.624Z,101829.91
2022-09-05T22:02:02.031Z,101830.78
2022-09-05T22:04:33.718Z,101835.13
2022-09-05T22:07:12.947Z,101832.47
2022-09-05T22:09:41.626Z,101836.84
2022-09-05T22:12:28.318Z,101832.38
2022-09-05T22:15:26.261Z,101832.31
2022-09-05T22:17:54.246Z,101834.06
2022-09-05T22:20:27.958Z,101833.13
2022-09-05T22:22:57.119Z,101831.34
2022-09-05T22:25:30.058Z,101828.63
2022-09-05T22:28:06.490Z,101832.13
2022-09-05T22:30:36.776Z,101824.19
2022-09-05T22:33:06.171Z,101822.44
2022-09-05T22:35:35.789Z,101816.19
2022-09-05T22:38:10.578Z,101829.31
2022-09-05T22:40:42.140Z,101831.03
2022-09-05T22:43:12.029Z,101824.88
2022-09-05T22:45:42.609Z,101823.94
2022-09-05T22:48:13.527Z,101816.84
2022-09-05T22:50:43.683Z,101826.47
2022-09-05T22:53:12.337Z,101822.94
2022-09-05T22:55:43.092Z,101821.13
2022-09-05T22:58:13.833Z,101814.97
2022-09-05T23:00:44.497Z,101812.28
2022-09-05T23:03:13.370Z,101816.63
2022-09-05T23:05:42.112Z,101822.72
2022-09-05T23:08:11.260Z,101822.69
2022-09-05T23:10:39.886Z,101820.00
2022-09-05T23:13:10.616Z,101821.72
2022-09-05T23:15:40.056Z,101812.03
2022-09-05T23:18:10.149Z,101816.38
2022-09-05T23:20:38.879Z,101810.22
2022-09-05T23:23:08.124Z,101808.38
2022-09-05T23:25:37.212Z,101813.66
2022-09-05T23:28:06.951Z,101815.38
2022-09-05T23:30:36.238Z,101812.69
2022-09-05T23:33:07.524Z,101808.25
2022-09-05T23:35:38.389Z,101812.53
2022-09-05T23:38:10.277Z,101820.38
2022-09-05T23:40:39.351Z,101801.91
2022-09-05T23:43:08.511Z,101808.88
2022-09-05T23:45:37.307Z,101803.59
2022-09-05T23:48:06.221Z,101803.53
2022-09-05T23:50:34.842Z,101800.00
2022-09-05T23:53:05.754Z,101806.06
2022-09-05T23:55:34.671Z,101807.81
2022-09-05T23:58:03.560Z,101796.38
